Terminal Aerodrome Forecast
Issued by NWS

Home | Current Version | Previous Version | Text Only | Print | Product List | Glossary On
Versions: 1 2 3 4 5 6 7 8 9 10 11 12 13 14 15 16 17 18
000
FTUS43 KSGF 292348 CCA
TAFJLN
TAF COR
KJLN 292348Z 3000/3024 09017G23KT 6SM -SHRA VCTS BKN015 OVC050CB
      WS020/17045KT
      TEMPO 3000/3004 2SM TSRA BR BKN008 OVC015CB
     FM300600 10007KT 4SM BR VCSH BKN006 OVC025
     FM301500 24010KT P6SM BKN015 OVC050
     FM301800 26011KT P6SM FEW030=

USA.gov is the U.S. government's official web portal to all federal, state and local government web resources and services.